Time;durP1;ratioP1;P1;durP2;ratioP2;P2;SDS_P1;SDS_P2;PMS_P1;PMS_P2;Temp;Humidity;BMP_temperature;BMP_pressure;BME280_temperature;BME280_humidity;BME280_pressure;Samples;Min_cycle;Max_cycle;Signal;HPM_P1;HPM_P2
2022/11/11 00:01:36;;;;;;;27.07;15.45;;;;;;;8.95;94.74;101247.11;1774580;81;21009;-60
2022/11/11 00:04:23;;;;;;;26.77;15.07;;;;;;;8.96;94.91;101244.72;1768856;81;21012;-59
2022/11/11 00:07:11;;;;;;;23.75;13.20;;;;;;;8.98;94.98;101251.39;1757483;81;21711;-60
2022/11/11 00:09:59;;;;;;;;;;;;;;;8.99;94.97;101246.27;1755187;81;21008;-62
2022/11/11 00:12:46;;;;;;;23.00;13.38;;;;;;;8.98;95.00;101248.14;1774494;81;20209;-60
2022/11/11 00:15:39;;;;;;;22.42;13.53;;;;;;;8.96;95.17;101249.33;1771769;80;21019;-62
2022/11/11 00:27:44;;;;;;;22.58;13.30;;;;;;;8.96;95.63;101252.92;1744184;81;20993;-60
2022/11/11 00:30:32;;;;;;;23.67;13.60;;;;;;;8.95;95.82;101256.67;1744074;82;21051;-60
2022/11/11 00:33:20;;;;;;;21.25;11.85;;;;;;;8.96;95.93;101254.80;1744351;81;21059;-61
2022/11/11 00:36:09;;;;;;;20.97;11.75;;;;;;;8.94;96.04;101252.23;1743989;82;21016;-61
2022/11/11 00:38:57;;;;;;;23.45;12.47;;;;;;;8.93;96.16;101261.45;1743871;81;21000;-61
2022/11/11 00:41:46;;;;;;;20.15;11.25;;;;;;;8.89;96.30;101247.27;1743859;82;21468;-60
2022/11/11 00:44:36;;;;;;;20.52;12.15;;;;;;;8.90;96.57;101254.95;1745494;81;21012;-61
2022/11/11 00:53:39;;;;;;;22.13;12.60;;;;;;;8.87;97.19;101259.38;1749136;81;21052;-61
2022/11/11 00:56:26;;;;;;;20.43;12.18;;;;;;;8.89;97.35;101257.34;1751459;81;21448;-62
2022/11/11 00:59:14;;;;;;;14.40;8.85;;;;;;;8.88;97.50;101250.16;1744496;81;20996;-60
2022/11/11 01:02:01;;;;;;;20.60;11.75;;;;;;;8.87;97.72;101256.14;1708078;84;21329;-60
2022/11/11 01:04:48;;;;;;;19.73;10.58;;;;;;;8.86;97.85;101265.36;1749145;81;21080;-62
2022/11/11 01:07:38;;;;;;;14.55;8.90;;;;;;;8.85;98.11;101262.28;1758073;81;21079;-60
2022/11/11 01:10:37;;;;;;;19.50;11.38;;;;;;;8.85;98.29;101262.79;1744007;82;21044;-59
2022/11/11 01:13:30;;;;;;;15.98;9.58;;;;;;;8.84;98.45;101260.57;1730993;82;21058;-60
2022/11/11 01:16:21;;;;;;;15.80;9.43;;;;;;;8.85;98.65;101260.91;1731651;82;21036;-60
2022/11/11 01:19:09;;;;;;;16.12;9.63;;;;;;;8.87;98.85;101267.58;1731013;83;21143;-62
2022/11/11 01:21:58;;;;;;;15.65;9.45;;;;;;;8.89;98.99;101266.91;1673543;86;21487;-61
2022/11/11 01:24:45;;;;;;;15.15;9.55;;;;;;;8.90;99.12;101268.10;1673692;86;21047;-59
2022/11/11 01:27:34;;;;;;;16.42;9.45;;;;;;;8.89;99.24;101272.37;1674626;84;21479;-60
2022/11/11 01:30:22;;;;;;;14.80;8.93;;;;;;;8.88;99.40;101276.98;1685153;84;21099;-61
2022/11/11 01:33:11;;;;;;;14.73;8.63;;;;;;;8.87;99.50;101264.84;1700390;84;21017;-60
2022/11/11 01:36:13;;;;;;;12.75;8.15;;;;;;;8.88;99.66;101269.30;1646004;86;21067;-62
2022/11/11 01:39:01;;;;;;;13.75;8.35;;;;;;;8.89;99.75;101271.00;1654484;85;21086;-60
2022/11/11 01:41:49;;;;;;;13.55;8.20;;;;;;;8.88;99.92;101276.12;1701661;84;21079;-59
2022/11/11 01:44:45;;;;;;;15.35;8.53;;;;;;;8.84;100.00;101276.97;1701807;84;21096;-60
2022/11/11 01:49:17;;;;;;;12.43;8.05;;;;;;;8.84;100.00;101272.02;1739201;82;21052;-61
2022/11/11 01:50:25;;;;;;;11.48;7.17;;;;;;;8.87;100.00;101279.88;1764553;81;21008;-62
2022/11/11 01:53:13;;;;;;;10.75;6.95;;;;;;;8.87;100.00;101280.73;1744087;82;21059;-60
2022/11/11 01:56:00;;;;;;;;;;;;;;;8.88;100.00;101276.98;1746723;82;20976;-60
2022/11/11 01:58:49;;;;;;;11.08;7.30;;;;;;;8.89;100.00;101280.57;1768326;81;20150;-60
2022/11/11 02:01:37;;;;;;;10.05;6.83;;;;;;;8.86;100.00;101286.37;1774704;81;21044;-60
2022/11/11 02:07:32;;;;;;;10.08;6.05;;;;;;;8.92;100.00;101280.23;1774320;81;21451;-61
2022/11/11 02:10:22;;;;;;;9.45;6.35;;;;;;;8.93;100.00;101285.19;1772964;81;20989;-60
2022/11/11 02:16:19;;;;;;;10.23;6.37;;;;;;;8.93;100.00;101284.69;1745878;81;21040;-61
2022/11/11 02:19:07;;;;;;;8.60;5.78;;;;;;;8.94;100.00;101293.23;1708388;84;21028;-61
2022/11/11 02:21:59;;;;;;;9.15;5.08;;;;;;;8.97;100.00;101294.27;1743924;82;21004;-59
2022/11/11 02:24:47;;;;;;;10.15;6.30;;;;;;;9.01;100.00;101298.89;1743975;82;21532;-61
2022/11/11 02:27:39;;;;;;;9.95;6.30;;;;;;;9.01;100.00;101295.64;1759594;81;21445;-59
2022/11/11 02:30:27;;;;;;;10.38;6.20;;;;;;;9.03;100.00;101292.23;1738022;81;21020;-62
2022/11/11 02:33:15;;;;;;;9.50;6.15;;;;;;;9.04;100.00;101296.68;1774701;81;20996;-62
2022/11/11 02:36:04;;;;;;;8.48;5.50;;;;;;;9.05;100.00;101297.53;1774825;81;21072;-59
2022/11/11 02:38:52;;;;;;;9.75;6.03;;;;;;;9.03;100.00;101293.60;1774643;81;21028;-61
2022/11/11 02:41:56;;;;;;;9.05;6.15;;;;;;;9.04;100.00;101296.68;1774819;81;20972;-59
2022/11/11 02:44:44;;;;;;;10.68;5.60;;;;;;;9.05;100.00;101296.17;1735195;81;21051;-60
2022/11/11 02:47:33;;;;;;;9.15;5.58;;;;;;;9.05;100.00;101301.13;1744147;82;21036;-60
2022/11/11 02:50:21;;;;;;;9.00;5.40;;;;;;;9.06;100.00;101293.78;1744331;81;21051;-61
2022/11/11 02:53:09;;;;;;;8.90;5.87;;;;;;;9.07;100.00;101288.14;1743951;82;20988;-61
2022/11/11 02:55:58;;;;;;;9.35;5.87;;;;;;;9.09;100.00;101291.57;1743915;82;21068;-60
2022/11/11 02:58:45;;;;;;;10.08;6.00;;;;;;;9.10;100.00;101291.06;1764648;81;20993;-59
2022/11/11 03:01:36;;;;;;;8.05;5.53;;;;;;;9.11;100.00;101292.80;1774683;80;21084;-59
2022/11/11 03:04:24;;;;;;;;;;;;;;;9.08;100.00;101295.33;1777132;81;20997;-60
2022/11/11 03:07:13;;;;;;;;;;;;;;;9.09;100.00;101302.50;1776832;80;20640;-59
2022/11/11 03:10:01;;;;;;;9.10;5.73;;;;;;;9.11;100.00;101299.64;1769764;81;20211;-59
2022/11/11 03:12:50;;;;;;;10.03;6.28;;;;;;;9.12;100.00;101302.72;1744039;82;21040;-59
2022/11/11 03:15:37;;;;;;;9.68;6.15;;;;;;;9.11;100.00;101303.23;1752390;82;21071;-60
2022/11/11 03:18:25;;;;;;;9.45;6.37;;;;;;;9.09;100.00;101299.77;1757171;82;21064;-61
2022/11/11 03:21:13;;;;;;;;;;;;;;;9.11;100.00;101305.96;1760245;80;21039;-59
2022/11/11 03:24:03;;;;;;;9.08;6.47;;;;;;;9.13;100.00;101303.06;1757180;82;20171;-60
2022/11/11 03:26:51;;;;;;;11.78;7.35;;;;;;;9.12;100.00;101306.30;1721433;83;21015;-59
2022/11/11 03:29:38;;;;;;;10.30;6.60;;;;;;;9.13;100.00;101306.66;1699528;83;21026;-60
2022/11/11 03:32:25;;;;;;;12.27;7.40;;;;;;;9.16;100.00;101304.95;1721490;83;21011;-61
2022/11/11 03:35:13;;;;;;;13.48;7.22;;;;;;;9.18;100.00;101308.37;1703522;84;21285;-61
2022/11/11 03:38:22;;;;;;;13.80;6.75;;;;;;;9.20;100.00;101309.06;1703305;84;21056;-60
2022/11/11 03:41:07;;;;;;;11.33;6.87;;;;;;;9.21;100.00;101313.51;1703123;84;21072;-60
2022/11/11 03:43:54;;;;;;;13.53;7.78;;;;;;;9.21;100.00;101313.51;1708875;83;21059;-60
2022/11/11 03:46:42;;;;;;;13.22;7.67;;;;;;;9.20;100.00;101315.90;1703405;84;21040;-59
2022/11/11 03:49:30;;;;;;;13.32;7.62;;;;;;;9.21;100.00;101321.72;1710081;83;21087;-60
2022/11/11 03:52:18;;;;;;;12.00;7.10;;;;;;;9.24;100.00;101323.77;1721202;83;21462;-59
2022/11/11 03:55:08;;;;;;;15.80;8.38;;;;;;;9.23;100.00;101325.65;1732771;83;21020;-59
2022/11/11 03:57:56;;;;;;;16.12;8.58;;;;;;;9.23;100.00;101321.55;1709195;83;21051;-59
2022/11/11 04:00:44;;;;;;;13.50;7.80;;;;;;;9.24;100.00;101323.77;1703244;84;21065;-59
2022/11/11 04:16:06;;;;;;;17.70;9.30;;;;;;;9.25;100.00;101349.58;1643749;87;21591;-61
2022/11/11 04:21:59;;;;;;;16.42;9.43;;;;;;;9.24;100.00;101349.75;1689991;85;21042;-59
2022/11/11 04:31:04;;;;;;;18.62;10.70;;;;;;;9.23;100.00;101353.50;1752194;80;21042;-59
2022/11/11 04:33:52;;;;;;;19.35;11.48;;;;;;;9.23;100.00;101355.73;1752180;82;21089;-57
2022/11/11 04:36:41;;;;;;;17.62;10.45;;;;;;;9.23;100.00;101358.47;1752008;82;21487;-56
2022/11/11 04:42:35;;;;;;;19.05;10.23;;;;;;;9.23;100.00;101363.94;1752975;80;21058;-57
2022/11/11 04:45:32;;;;;;;17.27;10.20;;;;;;;9.24;100.00;101367.53;1783172;80;21046;-56
2022/11/11 04:48:20;;;;;;;19.07;10.72;;;;;;;9.23;100.00;101361.70;1783303;80;21077;-57
2022/11/11 04:51:09;;;;;;;18.07;9.65;;;;;;;9.23;100.00;101365.30;1766381;80;21015;-57
2022/11/11 04:53:59;;;;;;;17.70;9.98;;;;;;;9.25;100.00;101362.41;1783005;80;21038;-57
2022/11/11 04:56:47;;;;;;;18.90;11.35;;;;;;;9.25;100.00;101363.26;1781491;80;21050;-58
2022/11/11 04:59:36;;;;;;;21.10;11.40;;;;;;;9.28;100.00;101364.80;1751988;81;21003;-56
2022/11/11 05:08:54;;;;;;;20.35;10.72;;;;;;;9.25;100.00;101363.26;1689284;83;20220;-56
2022/11/11 05:11:34;;;;;;;20.55;11.30;;;;;;;9.25;100.00;101380.17;1691002;85;21546;-58
2022/11/11 05:26:49;;;;;;;20.88;11.93;;;;;;;9.30;100.00;101395.58;1700325;84;21045;-58
2022/11/11 05:29:39;;;;;;;24.80;12.73;;;;;;;9.32;100.00;101393.53;1751859;82;21444;-57
2022/11/11 05:32:26;;;;;;;22.00;12.03;;;;;;;9.34;100.00;101401.92;1752492;80;20972;-60
2022/11/11 05:35:14;;;;;;;;;;;;;;;9.34;100.00;101414.23;1754529;81;21007;-59
2022/11/11 05:38:20;;;;;;;22.27;11.73;;;;;;;9.35;100.00;101415.09;1780352;80;20201;-56
2022/11/11 05:41:09;;;;;;;21.45;11.78;;;;;;;9.34;100.00;101420.20;1782631;80;20988;-57
2022/11/11 05:43:58;;;;;;;23.98;12.07;;;;;;;9.36;100.00;101426.37;1782566;80;21016;-57
2022/11/11 05:46:46;;;;;;;22.20;12.50;;;;;;;9.39;100.00;101438.35;1762493;80;21004;-58
2022/11/11 05:49:35;;;;;;;23.45;11.97;;;;;;;9.39;100.00;101431.00;1752002;80;21047;-57
2022/11/11 05:52:25;;;;;;;23.12;12.23;;;;;;;9.39;100.00;101437.84;1751790;82;21040;-58
2022/11/11 05:55:13;;;;;;;21.50;11.15;;;;;;;9.42;100.00;101443.49;1751743;82;21462;-58
2022/11/11 05:58:01;;;;;;;20.40;11.83;;;;;;;9.42;100.00;101447.59;1766733;80;21048;-56
2022/11/11 06:00:49;;;;;;;20.65;11.55;;;;;;;9.45;100.00;101452.73;1782750;80;21043;-56
2022/11/11 06:03:38;;;;;;;22.17;12.37;;;;;;;9.42;100.00;101450.33;1742720;82;21019;-57
2022/11/11 06:06:25;;;;;;;21.07;11.97;;;;;;;9.43;100.00;101458.89;1782945;80;21032;-57
2022/11/11 06:09:14;;;;;;;20.23;11.08;;;;;;;9.44;100.00;101457.35;1745272;82;21059;-57
2022/11/11 06:12:01;;;;;;;26.05;12.78;;;;;;;9.48;100.00;101466.09;1782825;80;20968;-56
2022/11/11 06:14:49;;;;;;;25.20;13.43;;;;;;;9.50;100.00;101465.41;1768557;80;21043;-57
2022/11/11 06:17:38;;;;;;;25.72;13.45;;;;;;;9.50;100.00;101478.58;1751599;82;21042;-56
2022/11/11 06:20:28;;;;;;;27.32;12.65;;;;;;;9.52;100.00;101484.75;1777049;80;21040;-56
2022/11/11 06:23:16;;;;;;;25.43;12.60;;;;;;;9.56;100.00;101489.89;1745565;82;21051;-57
2022/11/11 06:26:15;;;;;;;26.70;13.30;;;;;;;9.56;100.00;101484.42;1782831;79;21060;-58
2022/11/11 06:29:04;;;;;;;27.70;13.22;;;;;;;9.56;100.00;101491.26;1781595;80;21021;-58
2022/11/11 06:31:51;;;;;;;29.27;14.58;;;;;;;9.53;100.00;101493.30;1751757;82;21467;-57
2022/11/11 06:34:39;;;;;;;25.60;12.43;;;;;;;9.54;100.00;101499.62;1752349;80;21024;-57
2022/11/11 06:37:28;;;;;;;27.13;13.53;;;;;;;9.54;100.00;101503.22;1782479;80;21000;-57
2022/11/11 06:40:16;;;;;;;23.73;13.10;;;;;;;9.54;100.00;101500.48;1782655;80;20996;-57
2022/11/11 06:43:07;;;;;;;26.77;14.00;;;;;;;9.56;100.00;101505.80;1742015;82;21023;-58
2022/11/11 06:45:55;;;;;;;32.15;13.28;;;;;;;9.57;100.00;101503.92;1752202;80;21048;-57
2022/11/11 06:48:44;;;;;;;29.60;13.98;;;;;;;9.60;100.00;101519.49;1751974;81;21061;-57
2022/11/11 06:51:32;;;;;;;27.90;14.20;;;;;;;9.63;100.00;101513.69;1751663;81;21088;-57
2022/11/11 06:54:22;;;;;;;27.42;13.83;;;;;;;9.67;100.00;101521.06;1751766;80;20996;-56
2022/11/11 06:57:10;;;;;;;25.05;13.68;;;;;;;9.70;100.00;101520.73;1756215;80;21051;-57
2022/11/11 06:59:58;;;;;;;29.07;13.18;;;;;;;9.68;100.00;101514.56;1736371;82;21070;-57
2022/11/11 07:02:46;;;;;;;;;;;;;;;9.67;100.00;101520.55;1785337;79;21953;-57
2022/11/11 07:05:35;;;;;;;29.90;14.15;;;;;;;9.70;100.00;101524.84;1782503;79;20161;-58
2022/11/11 07:08:23;;;;;;;26.90;13.25;;;;;;;9.71;100.00;101523.30;1728361;82;21031;-58
2022/11/11 07:11:13;;;;;;;29.15;14.13;;;;;;;9.73;100.00;101524.51;1751752;82;21180;-57
2022/11/11 07:14:04;;;;;;;31.00;15.03;;;;;;;9.75;100.00;101527.94;1751724;81;21075;-58
2022/11/11 07:16:52;;;;;;;32.00;13.93;;;;;;;9.76;100.00;101531.05;1775569;80;21390;-58
2022/11/11 07:19:40;;;;;;;34.10;14.28;;;;;;;9.78;100.00;101534.48;1737263;82;21063;-58
2022/11/11 07:22:28;;;;;;;30.15;13.62;;;;;;;9.80;100.00;101536.03;1744905;80;20988;-60
2022/11/11 07:25:20;;;;;;;31.40;14.68;;;;;;;9.81;100.00;101528.68;1708165;84;20999;-57
2022/11/11 07:28:08;;;;;;;30.35;14.23;;;;;;;9.82;100.00;101534.50;1743548;81;21019;-58
2022/11/11 07:30:56;;;;;;;29.90;14.98;;;;;;;9.84;100.00;101538.79;1701552;84;21022;-58
2022/11/11 07:33:45;;;;;;;31.50;14.95;;;;;;;9.88;100.00;101544.79;1708151;84;21047;-61
2022/11/11 07:36:34;;;;;;;33.00;15.03;;;;;;;9.91;100.00;101551.81;1744328;81;21761;-59
2022/11/11 07:39:22;;;;;;;31.42;13.85;;;;;;;9.94;100.00;101555.59;1708133;84;21028;-59
2022/11/11 07:42:11;;;;;;;39.10;17.10;;;;;;;9.94;100.00;101552.34;1743789;82;21476;-61
2022/11/11 07:45:01;;;;;;;33.38;15.70;;;;;;;9.93;100.00;101550.62;1705847;84;21322;-60
2022/11/11 07:47:49;;;;;;;36.33;14.68;;;;;;;9.95;100.00;101554.05;1770823;81;21040;-61
2022/11/11 07:50:38;;;;;;;32.75;14.33;;;;;;;9.95;100.00;101560.05;1774474;80;21051;-61
2022/11/11 07:53:27;;;;;;;29.48;14.40;;;;;;;9.94;100.00;101561.92;1774393;81;21436;-61
2022/11/11 07:56:16;;;;;;;33.02;15.50;;;;;;;9.94;99.95;101562.44;1774655;81;21071;-60
2022/11/11 07:59:04;;;;;;;33.08;15.60;;;;;;;9.92;99.86;101559.00;1772318;81;21024;-60
2022/11/11 08:01:53;;;;;;;35.38;16.32;;;;;;;9.93;99.90;101556.10;1763239;81;21083;-59
2022/11/11 08:04:41;;;;;;;38.98;16.93;;;;;;;9.95;99.90;101562.27;1735013;82;21044;-62
2022/11/11 08:07:30;;;;;;;35.48;18.20;;;;;;;9.98;99.90;101566.55;1743751;81;21469;-63
2022/11/11 08:10:18;;;;;;;34.15;17.73;;;;;;;10.02;99.88;101566.57;1743983;82;21020;-61
2022/11/11 08:16:15;;;;;;;35.57;17.77;;;;;;;10.04;99.82;101576.84;1753949;81;21008;-59
2022/11/11 08:19:04;;;;;;;37.23;18.07;;;;;;;10.06;99.83;101573.44;1782231;80;21815;-59
2022/11/11 08:21:51;;;;;;;39.78;18.37;;;;;;;10.09;99.84;101575.84;1786132;79;21031;-60
2022/11/11 08:24:39;;;;;;;37.83;17.70;;;;;;;10.12;99.82;101578.25;1788191;80;21468;-61
2022/11/11 08:27:31;;;;;;;37.58;19.52;;;;;;;10.12;99.75;101583.72;1788170;80;21000;-61
2022/11/11 08:30:20;;;;;;;38.78;17.12;;;;;;;10.12;99.76;101587.31;1788183;80;21035;-62
2022/11/11 08:33:08;;;;;;;35.30;16.57;;;;;;;10.12;99.79;101586.47;1770012;80;21063;-60
2022/11/11 08:36:00;;;;;;;32.13;15.68;;;;;;;10.14;99.72;101583.05;1704749;83;21458;-61
2022/11/11 08:38:49;;;;;;;33.85;16.70;;;;;;;10.11;99.63;101580.13;1704433;83;21007;-61
2022/11/11 08:41:38;;;;;;;36.17;16.05;;;;;;;10.11;99.68;101588.86;1648155;87;21071;-61
2022/11/11 08:44:27;;;;;;;35.58;15.65;;;;;;;10.13;99.80;101584.07;1661071;86;21059;-65
2022/11/11 08:47:15;;;;;;;33.73;16.42;;;;;;;10.15;99.88;101575.17;1708198;83;21011;-63
2022/11/11 08:50:05;;;;;;;35.25;17.17;;;;;;;10.20;99.89;101581.52;1707022;84;21111;-60
2022/11/11 08:52:53;;;;;;;41.70;18.80;;;;;;;10.23;99.77;101575.23;1714056;83;21072;-61
2022/11/11 08:55:41;;;;;;;38.67;18.17;;;;;;;10.28;99.81;101579.70;1718171;83;21047;-62
2022/11/11 08:58:31;;;;;;;36.83;17.90;;;;;;;10.31;99.69;101580.73;1708290;83;21019;-62
2022/11/11 09:01:18;;;;;;;33.67;16.10;;;;;;;10.35;99.65;101574.41;1757090;81;21051;-62
2022/11/11 09:04:06;;;;;;;28.15;13.93;;;;;;;10.38;99.52;101570.81;1757143;80;21071;-63
2022/11/11 09:06:56;;;;;;;30.77;14.47;;;;;;;10.43;99.14;101566.23;1756998;82;21135;-63
2022/11/11 09:09:44;;;;;;;;;;;;;;;10.45;98.91;101568.30;1760947;80;21004;-62
2022/11/11 09:12:32;;;;;;;27.20;13.60;;;;;;;10.53;98.76;101571.56;1757697;80;20207;-64
2022/11/11 09:15:20;;;;;;;;;;;;;;;10.57;98.50;101575.17;1723748;82;21038;-62
2022/11/11 09:18:15;;;;;;;28.35;14.58;;;;;;;10.63;98.18;101575.86;1708513;83;20177;-68
2022/11/11 09:21:06;;;;;;;28.52;14.38;;;;;;;10.64;97.66;101578.95;1746092;81;21032;-63
2022/11/11 09:23:54;;;;;;;32.48;15.35;;;;;;;10.68;97.29;101575.35;1690242;84;21074;-63
2022/11/11 09:26:48;;;;;;;28.38;14.47;;;;;;;10.69;96.80;101572.44;1743965;81;21083;-64
2022/11/11 09:29:39;;;;;;;28.10;14.70;;;;;;;10.69;96.45;101574.33;1752837;81;21025;-63
2022/11/11 09:32:27;;;;;;;38.08;17.98;;;;;;;10.70;96.14;101571.92;1743582;81;21598;-61
2022/11/11 09:35:15;;;;;;;36.05;16.70;;;;;;;10.73;95.84;101566.11;1752196;81;21056;-62
2022/11/11 09:38:05;;;;;;;30.68;14.90;;;;;;;10.74;95.71;101563.19;1753104;81;21022;-64
2022/11/11 09:41:25;;;;;;;30.43;15.58;;;;;;;10.80;95.59;101561.65;1743781;82;21030;-63
2022/11/11 09:44:47;;;;;;;26.48;14.45;;;;;;;10.88;95.50;101566.28;1743753;82;21067;-61
2022/11/11 09:48:06;;;;;;;29.55;13.70;;;;;;;10.97;95.33;101562.51;1743662;80;21060;-63
2022/11/11 09:50:57;;;;;;;28.75;13.60;;;;;;;11.05;94.84;101567.98;1743764;81;21040;-62
2022/11/11 09:53:54;;;;;;;24.65;12.53;;;;;;;11.07;94.35;101566.81;1759803;79;21020;-63
2022/11/11 09:56:43;;;;;;;23.12;13.13;;;;;;;11.07;93.72;101558.59;1744009;81;21000;-62
2022/11/11 09:59:49;;;;;;;24.40;13.15;;;;;;;11.06;93.06;101564.25;1774242;81;21020;-62
2022/11/11 10:02:51;;;;;;;26.65;12.68;;;;;;;11.06;92.67;101568.36;1774525;81;21060;-61
2022/11/11 10:06:06;;;;;;;26.75;14.28;;;;;;;11.04;92.33;101567.13;1772573;80;21028;-62
2022/11/11 10:09:08;;;;;;;30.32;16.57;;;;;;;11.04;92.12;101564.39;1763536;80;20989;-62
2022/11/11 10:12:14;;;;;;;33.95;15.93;;;;;;;11.06;92.12;101562.36;1743645;82;21020;-62
2022/11/11 10:15:15;;;;;;;26.23;13.22;;;;;;;11.10;92.06;101565.62;1743730;81;21051;-61
2022/11/11 10:18:27;;;;;;;33.75;16.37;;;;;;;11.14;91.91;101574.36;1735393;82;21028;-63
2022/11/11 10:21:21;;;;;;;29.30;14.30;;;;;;;11.15;92.00;101571.44;1743836;82;21043;-63
2022/11/11 10:24:13;;;;;;;29.12;13.38;;;;;;;11.19;91.90;101568.69;1743709;82;21095;-64
2022/11/11 10:27:13;;;;;;;31.12;13.72;;;;;;;11.18;91.50;101566.98;1743934;82;21032;-62
2022/11/11 10:30:16;;;;;;;28.38;12.68;;;;;;;11.15;91.31;101568.70;1772830;81;21051;-62
2022/11/11 10:33:23;;;;;;;31.87;13.38;;;;;;;11.14;91.08;101565.61;1774139;81;21036;-64
2022/11/11 10:36:17;;;;;;;31.23;13.90;;;;;;;11.14;90.92;101574.36;1743063;81;21095;-65
2022/11/11 10:39:11;;;;;;;25.92;12.40;;;;;;;11.09;90.83;101572.98;1743668;82;21052;-63
2022/11/11 10:42:03;;;;;;;23.52;11.48;;;;;;;11.07;90.62;101566.81;1743778;81;21515;-61
2022/11/11 10:44:53;;;;;;;25.75;12.05;;;;;;;11.01;90.21;101560.62;1769469;81;21001;-61
2022/11/11 10:47:57;;;;;;;27.00;12.43;;;;;;;10.99;90.19;101548.97;1774201;81;21099;-62
2022/11/11 10:50:51;;;;;;;21.93;10.72;;;;;;;11.00;90.12;101554.80;1743727;82;21063;-62
2022/11/11 10:54:08;;;;;;;23.30;10.82;;;;;;;10.99;90.04;101550.34;1743889;82;21416;-62
2022/11/11 10:57:01;;;;;;;21.73;11.00;;;;;;;10.99;89.90;101556.34;1749762;81;21012;-62
2022/11/11 10:59:58;;;;;;;17.60;9.58;;;;;;;11.00;89.55;101567.13;1750371;80;21100;-67
2022/11/11 11:03:16;;;;;;;18.92;10.78;;;;;;;11.01;89.47;101566.63;1743793;82;21055;-63
2022/11/11 11:06:11;;;;;;;22.13;10.43;;;;;;;11.02;89.36;101560.96;1743682;82;21039;-62
2022/11/11 11:09:08;;;;;;;19.87;9.58;;;;;;;11.01;89.39;101557.88;1707544;83;21028;-61
2022/11/11 11:12:28;;;;;;;19.45;10.68;;;;;;;11.01;89.09;101564.73;1713906;83;21174;-61
2022/11/11 11:15:21;;;;;;;23.07;11.40;;;;;;;10.98;88.67;101556.84;1713558;83;21152;-62
2022/11/11 11:18:15;;;;;;;23.07;11.45;;;;;;;11.01;88.80;101559.25;1708186;83;21500;-62
2022/11/11 11:21:06;;;;;;;20.68;11.70;;;;;;;11.03;88.93;101553.59;1699384;84;21904;-63
2022/11/11 11:23:55;;;;;;;21.05;11.80;;;;;;;11.04;88.84;101550.67;1699678;84;21484;-61
2022/11/11 11:26:46;;;;;;;25.12;11.05;;;;;;;11.08;89.04;101556.70;1699576;84;21591;-63
2022/11/11 11:29:42;;;;;;;24.37;11.10;;;;;;;11.12;89.15;101553.95;1699595;84;21071;-63
2022/11/11 11:32:31;;;;;;;19.57;10.85;;;;;;;11.16;88.84;101559.95;1702134;82;21476;-60
2022/11/11 11:35:41;;;;;;;22.52;10.88;;;;;;;11.18;88.40;101551.89;1752109;82;21048;-62
2022/11/11 11:38:46;;;;;;;20.52;10.88;;;;;;;11.19;88.00;101548.12;1751876;82;21047;-63
2022/11/11 11:41:50;;;;;;;24.43;9.73;;;;;;;11.22;88.00;101542.28;1751677;82;21032;-60
2022/11/11 11:44:38;;;;;;;21.70;10.28;;;;;;;11.27;87.62;101546.73;1755887;80;21048;-61
2022/11/11 11:47:43;;;;;;;15.85;9.15;;;;;;;11.32;87.35;101547.06;1751745;82;21025;-61
2022/11/11 11:50:50;;;;;;;17.70;9.45;;;;;;;11.41;87.43;101558.87;1751754;82;21049;-62
2022/11/11 11:54:18;;;;;;;18.20;9.93;;;;;;;11.44;86.93;101548.41;1761115;80;21004;-63
2022/11/11 11:57:23;;;;;;;20.48;9.90;;;;;;;11.50;86.47;101550.11;1781643;79;21091;-63
2022/11/11 12:00:19;;;;;;;28.40;15.48;;;;;;;11.53;85.99;101549.24;1776789;80;21008;-63
2022/11/11 12:03:35;;;;;;;20.57;9.80;;;;;;;11.59;86.13;101547.16;1751809;82;21020;-62
2022/11/11 12:06:34;;;;;;;13.90;8.25;;;;;;;11.67;85.82;101554.52;1751892;81;21040;-62
2022/11/11 12:09:49;;;;;;;14.47;9.00;;;;;;;11.72;85.06;101553.50;1763860;80;21029;-62
2022/11/11 12:13:07;;;;;;;15.00;8.03;;;;;;;11.73;84.68;101549.20;1782409;80;21055;-64
2022/11/11 12:16:26;;;;;;;13.98;7.60;;;;;;;11.73;83.91;101550.58;1782011;80;21322;-61
2022/11/11 12:19:43;;;;;;;18.60;8.33;;;;;;;11.69;83.15;101545.08;1752203;82;21082;-63
2022/11/11 12:23:14;;;;;;;17.12;8.38;;;;;;;11.67;82.66;101544.91;1756917;80;21085;-63
2022/11/11 12:26:10;;;;;;;16.15;6.87;;;;;;;11.67;82.69;101549.88;1769851;79;20983;-62
2022/11/11 12:29:36;;;;;;;16.70;7.85;;;;;;;11.73;82.63;101548.35;1770418;81;21073;-64
2022/11/11 12:32:46;;;;;;;20.75;8.58;;;;;;;11.78;82.49;101554.72;1770191;81;21054;-65
2022/11/11 12:35:59;;;;;;;16.02;8.55;;;;;;;11.86;82.31;101541.81;1770379;81;21034;-63
2022/11/11 12:39:12;;;;;;;12.37;7.12;;;;;;;11.91;82.11;101550.38;1769499;80;21082;-64
2022/11/11 12:42:28;;;;;;;14.45;7.15;;;;;;;11.94;81.43;101547.27;1763016;80;20996;-61
2022/11/11 12:45:44;;;;;;;17.52;7.62;;;;;;;11.95;80.76;101553.61;1788085;80;21000;-62
2022/11/11 12:48:49;;;;;;;10.03;5.03;;;;;;;12.00;80.86;101562.17;1717094;83;21051;-63
2022/11/11 12:51:51;;;;;;;9.70;5.05;;;;;;;12.02;79.54;101561.48;1716897;83;21482;-62
2022/11/11 12:55:18;;;;;;;10.95;5.53;;;;;;;12.01;78.44;101571.61;1774227;80;20987;-64
2022/11/11 12:58:47;;;;;;;10.58;6.42;;;;;;;12.00;77.73;101564.92;1721041;82;21094;-62
2022/11/11 13:02:01;;;;;;;16.52;7.97;;;;;;;11.98;77.28;101569.73;1692184;83;21086;-63
2022/11/11 13:05:13;;;;;;;16.80;7.58;;;;;;;11.96;77.82;101578.67;1720989;83;21501;-62
2022/11/11 13:08:13;;;;;;;12.28;6.97;;;;;;;11.96;78.42;101586.91;1698598;82;21027;-63
2022/11/11 13:11:21;;;;;;;12.28;7.53;;;;;;;11.93;78.74;101589.50;1700546;83;21088;-63
2022/11/11 13:14:48;;;;;;;13.55;7.30;;;;;;;11.87;79.00;101586.61;1721259;82;21059;-62
2022/11/11 13:17:35;;;;;;;15.23;7.80;;;;;;;11.81;79.38;101590.06;1724123;82;21031;-59
2022/11/11 13:20:58;;;;;;;12.80;6.62;;;;;;;11.78;79.61;101593.16;1702401;83;21080;-60
2022/11/11 13:24:13;;;;;;;15.25;6.83;;;;;;;11.77;79.79;101596.39;1713485;82;21075;-60
2022/11/11 13:27:52;;;;;;;16.02;6.85;;;;;;;11.74;79.69;101602.23;1693551;82;21135;-59
2022/11/11 13:31:29;;;;;;;14.03;6.65;;;;;;;11.71;79.72;101603.44;1751325;82;21562;-59
2022/11/11 13:35:29;;;;;;;15.20;6.40;;;;;;;11.69;80.33;101601.36;1681398;82;21094;-59
2022/11/11 13:38:57;;;;;;;13.83;6.33;;;;;;;11.69;80.17;101601.88;1751419;80;21086;-59
2022/11/11 13:41:50;;;;;;;11.70;5.83;;;;;;;11.67;80.19;101614.92;1752892;80;21071;-60
2022/11/11 13:44:50;;;;;;;13.05;7.03;;;;;;;11.64;80.19;101620.77;1751924;81;21504;-61
2022/11/11 13:47:39;;;;;;;13.50;7.53;;;;;;;11.61;80.19;101620.59;1752000;82;21084;-60
2022/11/11 13:50:39;;;;;;;15.68;7.83;;;;;;;11.60;80.31;101624.38;1751341;81;21456;-60
2022/11/11 13:53:31;;;;;;;13.93;6.72;;;;;;;11.60;80.34;101627.63;1780758;80;21151;-59
2022/11/11 13:56:41;;;;;;;16.20;7.60;;;;;;;11.57;80.35;101632.95;1782495;80;21455;-60
2022/11/11 13:59:33;;;;;;;12.47;6.40;;;;;;;11.56;80.59;101629.02;1760774;80;21012;-60
2022/11/11 14:02:31;;;;;;;20.88;8.30;;;;;;;11.53;80.62;101632.11;1767203;80;21012;-60
2022/11/11 14:05:38;;;;;;;11.97;6.20;;;;;;;11.50;80.75;101627.82;1617730;87;21104;-58
2022/11/11 14:08:51;;;;;;;13.95;6.80;;;;;;;11.46;80.78;101634.69;1617604;89;21090;-59
2022/11/11 14:11:44;;;;;;;12.88;6.72;;;;;;;11.44;81.12;101640.35;1617505;89;21260;-59
2022/11/11 14:14:45;;;;;;;23.02;7.67;;;;;;;11.42;81.28;101642.41;1617604;88;21126;-59
2022/11/11 14:17:38;;;;;;;14.73;6.33;;;;;;;11.38;81.32;101645.67;1618487;87;21039;-60
2022/11/11 14:20:39;;;;;;;15.78;6.40;;;;;;;11.36;81.49;101648.59;1601645;88;21070;-60
2022/11/11 14:23:41;;;;;;;14.30;6.08;;;;;;;11.34;81.60;101645.68;1619509;88;21237;-61
2022/11/11 14:26:31;;;;;;;12.80;6.60;;;;;;;11.32;81.73;101650.48;1619784;88;21031;-59
2022/11/11 14:29:20;;;;;;;13.28;6.37;;;;;;;11.30;81.96;101646.54;1619846;88;21050;-59
2022/11/11 14:32:40;;;;;;;14.47;6.47;;;;;;;11.27;82.13;101648.77;1619798;88;21200;-60